sensor_id;sensor_type;location;lat;lon;timestamp;temperature;humidity
48043;DHT22;33988;47.992;8.820;2023-04-15T00:01:44;11.80;44.60
48043;DHT22;33988;47.992;8.820;2023-04-15T00:04:14;11.80;44.70
48043;DHT22;33988;47.992;8.820;2023-04-15T00:06:52;11.70;44.70
48043;DHT22;33988;47.992;8.820;2023-04-15T00:09:20;11.70;44.80
48043;DHT22;33988;47.992;8.820;2023-04-15T00:11:47;11.70;44.80
48043;DHT22;33988;47.992;8.820;2023-04-15T00:14:15;11.60;44.80
48043;DHT22;33988;47.992;8.820;2023-04-15T00:16:42;11.60;44.90
48043;DHT22;33988;47.992;8.820;2023-04-15T00:19:10;11.60;45.00
48043;DHT22;33988;47.992;8.820;2023-04-15T00:21:37;11.60;45.00
48043;DHT22;33988;47.992;8.820;2023-04-15T00:24:04;11.50;45.00
48043;DHT22;33988;47.992;8.820;2023-04-15T00:26:31;11.50;45.00
48043;DHT22;33988;47.992;8.820;2023-04-15T00:28:58;11.50;45.00
48043;DHT22;33988;47.992;8.820;2023-04-15T00:31:25;11.40;45.00
48043;DHT22;33988;47.992;8.820;2023-04-15T00:33:55;11.40;45.00
48043;DHT22;33988;47.992;8.820;2023-04-15T00:36:24;11.40;45.00
48043;DHT22;33988;47.992;8.820;2023-04-15T00:38:53;11.30;45.00
48043;DHT22;33988;47.992;8.820;2023-04-15T00:41:20;11.10;45.20
48043;DHT22;33988;47.992;8.820;2023-04-15T00:43:48;11.20;45.10
48043;DHT22;33988;47.992;8.820;2023-04-15T00:46:16;11.20;45.10
48043;DHT22;33988;47.992;8.820;2023-04-15T00:48:49;11.20;45.20
48043;DHT22;33988;47.992;8.820;2023-04-15T00:51:19;11.10;45.20
48043;DHT22;33988;47.992;8.820;2023-04-15T00:53:46;11.10;45.30
48043;DHT22;33988;47.992;8.820;2023-04-15T00:56:19;11.10;45.30
48043;DHT22;33988;47.992;8.820;2023-04-15T00:58:50;11.10;45.30
48043;DHT22;33988;47.992;8.820;2023-04-15T01:01:23;11.10;45.40
48043;DHT22;33988;47.992;8.820;2023-04-15T01:03:55;11.00;45.40
48043;DHT22;33988;47.992;8.820;2023-04-15T01:06:24;11.00;45.40
48043;DHT22;33988;47.992;8.820;2023-04-15T01:08:54;11.00;45.50
48043;DHT22;33988;47.992;8.820;2023-04-15T01:11:22;11.00;45.50
48043;DHT22;33988;47.992;8.820;2023-04-15T01:13:51;11.00;45.60
48043;DHT22;33988;47.992;8.820;2023-04-15T01:16:20;11.00;45.60
48043;DHT22;33988;47.992;8.820;2023-04-15T01:18:48;11.00;45.60
48043;DHT22;33988;47.992;8.820;2023-04-15T01:21:20;10.90;45.60
48043;DHT22;33988;47.992;8.820;2023-04-15T01:23:48;10.90;45.60
48043;DHT22;33988;47.992;8.820;2023-04-15T01:26:17;10.90;45.60
48043;DHT22;33988;47.992;8.820;2023-04-15T01:28:44;10.90;45.70
48043;DHT22;33988;47.992;8.820;2023-04-15T01:31:14;10.90;45.60
48043;DHT22;33988;47.992;8.820;2023-04-15T01:33:42;10.90;45.60
48043;DHT22;33988;47.992;8.820;2023-04-15T01:36:09;10.80;45.50
48043;DHT22;33988;47.992;8.820;2023-04-15T01:38:39;10.90;45.60
48043;DHT22;33988;47.992;8.820;2023-04-15T01:41:06;10.80;45.50
48043;DHT22;33988;47.992;8.820;2023-04-15T01:43:34;10.80;45.60
48043;DHT22;33988;47.992;8.820;2023-04-15T01:46:06;10.70;45.50
48043;DHT22;33988;47.992;8.820;2023-04-15T01:48:33;10.70;45.60
48043;DHT22;33988;47.992;8.820;2023-04-15T01:51:00;10.60;45.60
48043;DHT22;33988;47.992;8.820;2023-04-15T01:53:27;10.60;45.70
48043;DHT22;33988;47.992;8.820;2023-04-15T01:55:55;10.50;45.80
48043;DHT22;33988;47.992;8.820;2023-04-15T01:58:21;10.50;45.90
48043;DHT22;33988;47.992;8.820;2023-04-15T02:00:48;10.40;45.90
48043;DHT22;33988;47.992;8.820;2023-04-15T02:03:15;10.40;46.00
48043;DHT22;33988;47.992;8.820;2023-04-15T02:05:48;10.40;46.00
48043;DHT22;33988;47.992;8.820;2023-04-15T02:08:16;10.40;46.10
48043;DHT22;33988;47.992;8.820;2023-04-15T02:10:43;10.40;46.10
48043;DHT22;33988;47.992;8.820;2023-04-15T02:13:10;10.40;46.10
48043;DHT22;33988;47.992;8.820;2023-04-15T02:15:37;10.40;46.20
48043;DHT22;33988;47.992;8.820;2023-04-15T02:18:04;10.40;46.20
48043;DHT22;33988;47.992;8.820;2023-04-15T02:20:33;10.40;46.20
48043;DHT22;33988;47.992;8.820;2023-04-15T02:23:01;10.40;46.20
48043;DHT22;33988;47.992;8.820;2023-04-15T02:25:28;10.40;46.20
48043;DHT22;33988;47.992;8.820;2023-04-15T02:27:58;10.30;46.20
48043;DHT22;33988;47.992;8.820;2023-04-15T02:30:27;10.30;46.20
48043;DHT22;33988;47.992;8.820;2023-04-15T02:32:56;10.30;46.30
48043;DHT22;33988;47.992;8.820;2023-04-15T02:35:25;10.30;46.20
48043;DHT22;33988;47.992;8.820;2023-04-15T02:37:55;10.30;46.30
48043;DHT22;33988;47.992;8.820;2023-04-15T02:40:26;10.30;46.30
48043;DHT22;33988;47.992;8.820;2023-04-15T02:42:53;10.20;46.20
48043;DHT22;33988;47.992;8.820;2023-04-15T02:45:25;10.20;46.20
48043;DHT22;33988;47.992;8.820;2023-04-15T02:47:53;10.20;46.30
48043;DHT22;33988;47.992;8.820;2023-04-15T02:50:20;10.20;46.30
48043;DHT22;33988;47.992;8.820;2023-04-15T02:52:49;10.10;46.40
48043;DHT22;33988;47.992;8.820;2023-04-15T02:55:18;10.10;46.40
48043;DHT22;33988;47.992;8.820;2023-04-15T02:57:45;10.10;46.40
48043;DHT22;33988;47.992;8.820;2023-04-15T03:00:12;10.10;46.50
48043;DHT22;33988;47.992;8.820;2023-04-15T03:02:39;10.10;46.50
48043;DHT22;33988;47.992;8.820;2023-04-15T03:05:12;10.10;46.50
48043;DHT22;33988;47.992;8.820;2023-04-15T03:07:42;10.00;46.60
48043;DHT22;33988;47.992;8.820;2023-04-15T03:10:12;10.00;46.60
48043;DHT22;33988;47.992;8.820;2023-04-15T03:12:39;9.90;46.60
48043;DHT22;33988;47.992;8.820;2023-04-15T03:15:07;9.90;46.60
48043;DHT22;33988;47.992;8.820;2023-04-15T03:17:35;9.90;46.60
48043;DHT22;33988;47.992;8.820;2023-04-15T03:20:02;9.90;46.70
48043;DHT22;33988;47.992;8.820;2023-04-15T03:22:31;9.90;46.70
48043;DHT22;33988;47.992;8.820;2023-04-15T03:24:59;9.90;46.70
48043;DHT22;33988;47.992;8.820;2023-04-15T03:27:25;9.90;46.80
48043;DHT22;33988;47.992;8.820;2023-04-15T03:29:55;9.90;46.80
48043;DHT22;33988;47.992;8.820;2023-04-15T03:32:22;9.80;46.80
48043;DHT22;33988;47.992;8.820;2023-04-15T03:34:49;9.80;46.80
48043;DHT22;33988;47.992;8.820;2023-04-15T03:37:18;9.80;46.90
48043;DHT22;33988;47.992;8.820;2023-04-15T03:39:45;9.80;46.90
48043;DHT22;33988;47.992;8.820;2023-04-15T03:42:14;9.80;46.90
48043;DHT22;33988;47.992;8.820;2023-04-15T03:44:43;9.80;47.00
48043;DHT22;33988;47.992;8.820;2023-04-15T03:47:13;9.80;47.00
48043;DHT22;33988;47.992;8.820;2023-04-15T03:49:40;9.80;47.00
48043;DHT22;33988;47.992;8.820;2023-04-15T03:52:12;9.80;47.00
48043;DHT22;33988;47.992;8.820;2023-04-15T03:54:39;9.80;47.00
48043;DHT22;33988;47.992;8.820;2023-04-15T03:57:06;9.80;47.00
48043;DHT22;33988;47.992;8.820;2023-04-15T03:59:33;9.80;47.00
48043;DHT22;33988;47.992;8.820;2023-04-15T04:02:02;9.80;47.10
48043;DHT22;33988;47.992;8.820;2023-04-15T04:04:29;9.80;47.10
48043;DHT22;33988;47.992;8.820;2023-04-15T04:06:56;9.70;47.10
48043;DHT22;33988;47.992;8.820;2023-04-15T04:09:23;9.80;47.10
48043;DHT22;33988;47.992;8.820;2023-04-15T04:11:55;9.70;47.10
48043;DHT22;33988;47.992;8.820;2023-04-15T04:14:25;9.70;47.10
48043;DHT22;33988;47.992;8.820;2023-04-15T04:16:57;9.70;47.10
48043;DHT22;33988;47.992;8.820;2023-04-15T04:19:27;9.70;47.10
48043;DHT22;33988;47.992;8.820;2023-04-15T04:21:55;9.70;47.00
48043;DHT22;33988;47.992;8.820;2023-04-15T04:24:22;9.70;47.10
48043;DHT22;33988;47.992;8.820;2023-04-15T04:26:49;9.70;47.10
48043;DHT22;33988;47.992;8.820;2023-04-15T04:29:16;9.70;47.10
48043;DHT22;33988;47.992;8.820;2023-04-15T04:31:43;9.70;47.10
48043;DHT22;33988;47.992;8.820;2023-04-15T04:34:10;9.60;47.10
48043;DHT22;33988;47.992;8.820;2023-04-15T04:36:37;9.60;47.10
48043;DHT22;33988;47.992;8.820;2023-04-15T04:39:04;9.60;47.10
48043;DHT22;33988;47.992;8.820;2023-04-15T04:41:31;9.60;47.10
48043;DHT22;33988;47.992;8.820;2023-04-15T04:43:58;9.60;47.10
48043;DHT22;33988;47.992;8.820;2023-04-15T04:46:25;9.60;47.20
48043;DHT22;33988;47.992;8.820;2023-04-15T04:48:54;9.60;47.20
48043;DHT22;33988;47.992;8.820;2023-04-15T04:51:21;9.60;47.30
48043;DHT22;33988;47.992;8.820;2023-04-15T04:53:48;9.60;47.30
48043;DHT22;33988;47.992;8.820;2023-04-15T04:56:15;9.60;47.40
48043;DHT22;33988;47.992;8.820;2023-04-15T04:58:42;9.60;47.40
48043;DHT22;33988;47.992;8.820;2023-04-15T05:01:12;9.60;47.40
48043;DHT22;33988;47.992;8.820;2023-04-15T05:03:42;9.60;47.50
48043;DHT22;33988;47.992;8.820;2023-04-15T05:06:09;9.60;47.50
48043;DHT22;33988;47.992;8.820;2023-04-15T05:08:36;9.60;47.60
48043;DHT22;33988;47.992;8.820;2023-04-15T05:11:05;9.60;47.60
48043;DHT22;33988;47.992;8.820;2023-04-15T05:13:32;9.60;47.60
48043;DHT22;33988;47.992;8.820;2023-04-15T05:15:59;9.60;47.70
48043;DHT22;33988;47.992;8.820;2023-04-15T05:18:28;9.60;47.70
48043;DHT22;33988;47.992;8.820;2023-04-15T05:20:56;9.70;47.90
48043;DHT22;33988;47.992;8.820;2023-04-15T05:23:23;9.70;47.90
48043;DHT22;33988;47.992;8.820;2023-04-15T05:25:50;9.70;48.00
48043;DHT22;33988;47.992;8.820;2023-04-15T05:28:17;9.70;48.00
48043;DHT22;33988;47.992;8.820;2023-04-15T05:30:44;9.70;48.00
48043;DHT22;33988;47.992;8.820;2023-04-15T05:33:14;9.70;48.00
48043;DHT22;33988;47.992;8.820;2023-04-15T05:35:41;9.80;48.10
48043;DHT22;33988;47.992;8.820;2023-04-15T05:38:10;9.80;48.00
48043;DHT22;33988;47.992;8.820;2023-04-15T05:40:37;9.80;48.00
48043;DHT22;33988;47.992;8.820;2023-04-15T05:43:06;9.80;48.10
48043;DHT22;33988;47.992;8.820;2023-04-15T05:45:33;9.80;48.10
48043;DHT22;33988;47.992;8.820;2023-04-15T05:48:02;9.90;48.20
48043;DHT22;33988;47.992;8.820;2023-04-15T05:50:29;9.90;48.10
48043;DHT22;33988;47.992;8.820;2023-04-15T05:52:56;9.90;48.10
48043;DHT22;33988;47.992;8.820;2023-04-15T05:55:23;9.90;48.10
48043;DHT22;33988;47.992;8.820;2023-04-15T05:57:50;9.90;48.20
48043;DHT22;33988;47.992;8.820;2023-04-15T06:00:17;10.00;48.20
48043;DHT22;33988;47.992;8.820;2023-04-15T06:02:44;10.00;48.20
48043;DHT22;33988;47.992;8.820;2023-04-15T06:05:11;10.00;48.20
48043;DHT22;33988;47.992;8.820;2023-04-15T06:07:39;10.00;48.30
48043;DHT22;33988;47.992;8.820;2023-04-15T06:10:06;10.10;48.30
48043;DHT22;33988;47.992;8.820;2023-04-15T06:12:34;10.10;48.30
48043;DHT22;33988;47.992;8.820;2023-04-15T06:15:01;10.10;48.20
48043;DHT22;33988;47.992;8.820;2023-04-15T06:17:28;10.10;48.20
48043;DHT22;33988;47.992;8.820;2023-04-15T06:20:00;10.10;48.20
48043;DHT22;33988;47.992;8.820;2023-04-15T06:22:26;10.20;48.30
48043;DHT22;33988;47.992;8.820;2023-04-15T06:24:54;10.20;48.40
48043;DHT22;33988;47.992;8.820;2023-04-15T06:27:21;10.20;48.40
48043;DHT22;33988;47.992;8.820;2023-04-15T06:29:48;10.20;48.40
48043;DHT22;33988;47.992;8.820;2023-04-15T06:32:15;10.30;48.50
48043;DHT22;33988;47.992;8.820;2023-04-15T06:34:42;10.30;48.50
48043;DHT22;33988;47.992;8.820;2023-04-15T06:37:11;10.30;48.50
48043;DHT22;33988;47.992;8.820;2023-04-15T06:39:44;10.40;48.60
48043;DHT22;33988;47.992;8.820;2023-04-15T06:42:15;10.40;48.60
48043;DHT22;33988;47.992;8.820;2023-04-15T06:44:45;10.50;48.60
48043;DHT22;33988;47.992;8.820;2023-04-15T06:47:12;10.50;48.60
48043;DHT22;33988;47.992;8.820;2023-04-15T06:49:40;10.60;48.70
48043;DHT22;33988;47.992;8.820;2023-04-15T06:52:09;10.60;48.80
48043;DHT22;33988;47.992;8.820;2023-04-15T06:54:41;10.70;48.90
48043;DHT22;33988;47.992;8.820;2023-04-15T06:57:10;10.70;49.00
48043;DHT22;33988;47.992;8.820;2023-04-15T06:59:37;10.80;49.20
48043;DHT22;33988;47.992;8.820;2023-04-15T07:02:04;10.90;49.40
48043;DHT22;33988;47.992;8.820;2023-04-15T07:04:33;11.00;49.50
48043;DHT22;33988;47.992;8.820;2023-04-15T07:07:02;11.20;49.60
48043;DHT22;33988;47.992;8.820;2023-04-15T07:09:29;11.30;49.60
48043;DHT22;33988;47.992;8.820;2023-04-15T07:11:59;11.50;49.60
48043;DHT22;33988;47.992;8.820;2023-04-15T07:14:29;11.70;49.60
48043;DHT22;33988;47.992;8.820;2023-04-15T07:16:59;11.80;49.40
48043;DHT22;33988;47.992;8.820;2023-04-15T07:19:26;12.00;49.40
48043;DHT22;33988;47.992;8.820;2023-04-15T07:21:53;12.10;49.30
48043;DHT22;33988;47.992;8.820;2023-04-15T07:24:20;12.30;49.30
48043;DHT22;33988;47.992;8.820;2023-04-15T07:26:53;12.40;49.30
48043;DHT22;33988;47.992;8.820;2023-04-15T07:29:28;12.60;49.30
48043;DHT22;33988;47.992;8.820;2023-04-15T07:31:55;12.80;49.20
48043;DHT22;33988;47.992;8.820;2023-04-15T07:34:22;12.90;49.10
48043;DHT22;33988;47.992;8.820;2023-04-15T07:36:50;13.10;49.00
48043;DHT22;33988;47.992;8.820;2023-04-15T07:39:17;13.20;48.80
48043;DHT22;33988;47.992;8.820;2023-04-15T07:41:44;13.30;48.50
48043;DHT22;33988;47.992;8.820;2023-04-15T07:44:12;13.40;48.40
48043;DHT22;33988;47.992;8.820;2023-04-15T07:46:39;13.40;48.30
48043;DHT22;33988;47.992;8.820;2023-04-15T07:49:06;13.50;48.30
48043;DHT22;33988;47.992;8.820;2023-04-15T07:51:38;13.50;48.20
48043;DHT22;33988;47.992;8.820;2023-04-15T07:54:07;13.60;48.10
48043;DHT22;33988;47.992;8.820;2023-04-15T07:56:36;13.40;48.00
48043;DHT22;33988;47.992;8.820;2023-04-15T07:59:03;13.60;48.10
48043;DHT22;33988;47.992;8.820;2023-04-15T08:01:31;13.70;48.10
48043;DHT22;33988;47.992;8.820;2023-04-15T08:03:58;13.80;48.20
48043;DHT22;33988;47.992;8.820;2023-04-15T08:06:26;13.90;48.30
48043;DHT22;33988;47.992;8.820;2023-04-15T08:08:58;13.90;48.40
48043;DHT22;33988;47.992;8.820;2023-04-15T08:11:26;14.00;48.30
48043;DHT22;33988;47.992;8.820;2023-04-15T08:13:53;14.10;48.20
48043;DHT22;33988;47.992;8.820;2023-04-15T08:16:21;14.30;48.10
48043;DHT22;33988;47.992;8.820;2023-04-15T08:18:55;14.40;48.00
48043;DHT22;33988;47.992;8.820;2023-04-15T08:21:23;14.50;47.90
48043;DHT22;33988;47.992;8.820;2023-04-15T08:23:55;14.60;47.70
48043;DHT22;33988;47.992;8.820;2023-04-15T08:26:22;14.80;47.50
48043;DHT22;33988;47.992;8.820;2023-04-15T08:28:49;14.90;47.30
48043;DHT22;33988;47.992;8.820;2023-04-15T08:31:17;15.00;47.20
48043;DHT22;33988;47.992;8.820;2023-04-15T08:33:45;15.10;47.00
48043;DHT22;33988;47.992;8.820;2023-04-15T08:36:14;15.20;46.80
48043;DHT22;33988;47.992;8.820;2023-04-15T08:38:43;15.30;46.70
48043;DHT22;33988;47.992;8.820;2023-04-15T08:41:33;15.40;46.50
48043;DHT22;33988;47.992;8.820;2023-04-15T08:44:08;15.50;46.00
48043;DHT22;33988;47.992;8.820;2023-04-15T08:46:38;15.60;46.10
48043;DHT22;33988;47.992;8.820;2023-04-15T08:49:10;15.70;45.90
48043;DHT22;33988;47.992;8.820;2023-04-15T08:51:41;15.80;45.70
48043;DHT22;33988;47.992;8.820;2023-04-15T08:54:09;15.90;45.60
48043;DHT22;33988;47.992;8.820;2023-04-15T08:56:38;16.00;45.70
48043;DHT22;33988;47.992;8.820;2023-04-15T08:59:05;16.10;45.90
48043;DHT22;33988;47.992;8.820;2023-04-15T09:01:32;16.20;46.00
48043;DHT22;33988;47.992;8.820;2023-04-15T09:04:01;16.30;46.00
48043;DHT22;33988;47.992;8.820;2023-04-15T09:06:29;16.40;45.90
48043;DHT22;33988;47.992;8.820;2023-04-15T09:08:56;16.50;45.60
48043;DHT22;33988;47.992;8.820;2023-04-15T09:11:29;16.70;45.30
48043;DHT22;33988;47.992;8.820;2023-04-15T09:13:57;16.80;45.10
48043;DHT22;33988;47.992;8.820;2023-04-15T09:16:23;16.90;45.00
48043;DHT22;33988;47.992;8.820;2023-04-15T09:18:56;17.10;44.70
48043;DHT22;33988;47.992;8.820;2023-04-15T09:21:26;17.20;44.30
48043;DHT22;33988;47.992;8.820;2023-04-15T09:24:00;17.20;44.10
48043;DHT22;33988;47.992;8.820;2023-04-15T09:26:32;17.30;43.50
48043;DHT22;33988;47.992;8.820;2023-04-15T09:29:09;17.40;43.30
48043;DHT22;33988;47.992;8.820;2023-04-15T09:31:39;17.40;43.00
48043;DHT22;33988;47.992;8.820;2023-04-15T09:34:07;17.50;43.00
48043;DHT22;33988;47.992;8.820;2023-04-15T09:36:54;17.50;42.60
48043;DHT22;33988;47.992;8.820;2023-04-15T09:39:22;17.40;42.30
48043;DHT22;33988;47.992;8.820;2023-04-15T09:42:04;17.50;42.60
48043;DHT22;33988;47.992;8.820;2023-04-15T09:44:33;17.50;42.20
48043;DHT22;33988;47.992;8.820;2023-04-15T09:47:03;17.50;42.40
48043;DHT22;33988;47.992;8.820;2023-04-15T09:49:32;17.50;42.20
48043;DHT22;33988;47.992;8.820;2023-04-15T09:52:01;17.50;42.20
48043;DHT22;33988;47.992;8.820;2023-04-15T09:54:36;17.50;42.10
48043;DHT22;33988;47.992;8.820;2023-04-15T09:57:07;17.50;41.80
48043;DHT22;33988;47.992;8.820;2023-04-15T09:59:36;17.40;41.50
48043;DHT22;33988;47.992;8.820;2023-04-15T10:02:05;17.40;41.40
48043;DHT22;33988;47.992;8.820;2023-04-15T10:04:37;17.40;41.10
48043;DHT22;33988;47.992;8.820;2023-04-15T10:07:07;17.40;40.90
48043;DHT22;33988;47.992;8.820;2023-04-15T10:09:38;17.40;40.70
48043;DHT22;33988;47.992;8.820;2023-04-15T10:12:05;17.40;40.50
48043;DHT22;33988;47.992;8.820;2023-04-15T10:14:34;17.30;40.00
48043;DHT22;33988;47.992;8.820;2023-04-15T10:17:04;17.30;39.60
48043;DHT22;33988;47.992;8.820;2023-04-15T10:19:33;17.10;39.90
48043;DHT22;33988;47.992;8.820;2023-04-15T10:22:03;17.30;40.40
48043;DHT22;33988;47.992;8.820;2023-04-15T10:24:32;17.30;40.50
48043;DHT22;33988;47.992;8.820;2023-04-15T10:27:05;17.30;40.50
48043;DHT22;33988;47.992;8.820;2023-04-15T10:29:33;17.40;40.60
48043;DHT22;33988;47.992;8.820;2023-04-15T10:32:03;17.40;40.60
48043;DHT22;33988;47.992;8.820;2023-04-15T10:34:33;17.50;40.50
48043;DHT22;33988;47.992;8.820;2023-04-15T10:37:01;17.60;40.40
48043;DHT22;33988;47.992;8.820;2023-04-15T10:42:10;17.70;39.70
48043;DHT22;33988;47.992;8.820;2023-04-15T10:44:40;17.80;39.30
48043;DHT22;33988;47.992;8.820;2023-04-15T10:47:15;17.80;39.30
48043;DHT22;33988;47.992;8.820;2023-04-15T10:49:51;17.80;38.90
48043;DHT22;33988;47.992;8.820;2023-04-15T10:52:30;17.80;38.60
48043;DHT22;33988;47.992;8.820;2023-04-15T10:55:22;17.70;38.50
48043;DHT22;33988;47.992;8.820;2023-04-15T10:57:58;17.60;38.40
48043;DHT22;33988;47.992;8.820;2023-04-15T11:00:30;17.70;38.80
48043;DHT22;33988;47.992;8.820;2023-04-15T11:08:11;17.50;38.50
48043;DHT22;33988;47.992;8.820;2023-04-15T11:15:44;17.40;39.20
48043;DHT22;33988;47.992;8.820;2023-04-15T11:20:50;17.40;39.00
48043;DHT22;33988;47.992;8.820;2023-04-15T11:23:19;17.40;38.70
48043;DHT22;33988;47.992;8.820;2023-04-15T11:25:57;17.30;38.70
48043;DHT22;33988;47.992;8.820;2023-04-15T11:28:29;17.20;38.80
48043;DHT22;33988;47.992;8.820;2023-04-15T11:30:57;17.30;38.80
48043;DHT22;33988;47.992;8.820;2023-04-15T11:33:24;17.20;38.70
48043;DHT22;33988;47.992;8.820;2023-04-15T11:35:54;17.20;38.60
48043;DHT22;33988;47.992;8.820;2023-04-15T11:38:21;17.10;38.60
48043;DHT22;33988;47.992;8.820;2023-04-15T11:40:52;17.10;38.60
48043;DHT22;33988;47.992;8.820;2023-04-15T11:43:22;17.10;38.80
48043;DHT22;33988;47.992;8.820;2023-04-15T11:45:54;17.10;39.00
48043;DHT22;33988;47.992;8.820;2023-04-15T11:48:29;17.10;39.00
48043;DHT22;33988;47.992;8.820;2023-04-15T11:51:05;17.10;38.80
48043;DHT22;33988;47.992;8.820;2023-04-15T11:56:23;17.00;38.70
48043;DHT22;33988;47.992;8.820;2023-04-15T11:58:53;17.10;38.90
48043;DHT22;33988;47.992;8.820;2023-04-15T12:01:35;17.10;39.50
48043;DHT22;33988;47.992;8.820;2023-04-15T12:04:15;17.00;38.60
48043;DHT22;33988;47.992;8.820;2023-04-15T12:06:50;17.00;38.60
48043;DHT22;33988;47.992;8.820;2023-04-15T12:09:17;17.00;38.80
48043;DHT22;33988;47.992;8.820;2023-04-15T12:11:56;17.00;38.70
48043;DHT22;33988;47.992;8.820;2023-04-15T12:14:27;17.00;38.60
48043;DHT22;33988;47.992;8.820;2023-04-15T12:17:03;17.00;38.60
48043;DHT22;33988;47.992;8.820;2023-04-15T12:19:42;16.90;38.50
48043;DHT22;33988;47.992;8.820;2023-04-15T12:22:15;16.90;38.50
48043;DHT22;33988;47.992;8.820;2023-04-15T12:24:43;16.90;38.70
48043;DHT22;33988;47.992;8.820;2023-04-15T12:27:15;16.90;38.80
48043;DHT22;33988;47.992;8.820;2023-04-15T12:29:43;16.90;39.00
48043;DHT22;33988;47.992;8.820;2023-04-15T12:32:19;16.90;39.00
48043;DHT22;33988;47.992;8.820;2023-04-15T12:34:51;16.90;39.00
48043;DHT22;33988;47.992;8.820;2023-04-15T12:37:21;17.00;39.10
48043;DHT22;33988;47.992;8.820;2023-04-15T12:39:49;17.00;39.10
48043;DHT22;33988;47.992;8.820;2023-04-15T12:42:17;17.00;39.10
48043;DHT22;33988;47.992;8.820;2023-04-15T12:44:45;17.10;39.20
48043;DHT22;33988;47.992;8.820;2023-04-15T12:47:12;17.10;39.20
48043;DHT22;33988;47.992;8.820;2023-04-15T12:49:40;17.20;39.20
48043;DHT22;33988;47.992;8.820;2023-04-15T12:52:07;17.20;39.20
48043;DHT22;33988;47.992;8.820;2023-04-15T12:54:34;17.30;39.20
48043;DHT22;33988;47.992;8.820;2023-04-15T12:57:02;17.40;39.30
48043;DHT22;33988;47.992;8.820;2023-04-15T12:59:33;17.40;39.00
48043;DHT22;33988;47.992;8.820;2023-04-15T13:02:01;17.40;38.80
48043;DHT22;33988;47.992;8.820;2023-04-15T13:04:29;17.50;38.60
48043;DHT22;33988;47.992;8.820;2023-04-15T13:06:57;17.50;38.50
48043;DHT22;33988;47.992;8.820;2023-04-15T13:09:24;17.60;38.30
48043;DHT22;33988;47.992;8.820;2023-04-15T13:11:51;17.60;37.80
48043;DHT22;33988;47.992;8.820;2023-04-15T13:14:20;17.60;37.50
48043;DHT22;33988;47.992;8.820;2023-04-15T13:16:47;17.70;37.00
48043;DHT22;33988;47.992;8.820;2023-04-15T13:19:19;17.70;36.70
48043;DHT22;33988;47.992;8.820;2023-04-15T13:21:46;17.50;36.80
48043;DHT22;33988;47.992;8.820;2023-04-15T13:24:13;17.70;36.80
48043;DHT22;33988;47.992;8.820;2023-04-15T13:26:40;17.70;36.40
48043;DHT22;33988;47.992;8.820;2023-04-15T13:29:07;17.70;36.20
48043;DHT22;33988;47.992;8.820;2023-04-15T13:31:34;17.70;36.00
48043;DHT22;33988;47.992;8.820;2023-04-15T13:34:01;17.70;35.90
48043;DHT22;33988;47.992;8.820;2023-04-15T13:36:28;17.70;35.90
48043;DHT22;33988;47.992;8.820;2023-04-15T13:38:57;17.80;35.90
48043;DHT22;33988;47.992;8.820;2023-04-15T13:41:27;17.80;36.00
48043;DHT22;33988;47.992;8.820;2023-04-15T13:43:53;17.80;35.90
48043;DHT22;33988;47.992;8.820;2023-04-15T13:46:23;17.80;36.00
48043;DHT22;33988;47.992;8.820;2023-04-15T13:48:51;17.90;36.30
48043;DHT22;33988;47.992;8.820;2023-04-15T13:51:18;17.90;36.40
48043;DHT22;33988;47.992;8.820;2023-04-15T13:53:50;18.00;36.40
48043;DHT22;33988;47.992;8.820;2023-04-15T13:56:19;18.00;36.30
48043;DHT22;33988;47.992;8.820;2023-04-15T13:58:51;18.10;36.30
48043;DHT22;33988;47.992;8.820;2023-04-15T14:01:18;18.20;36.00
48043;DHT22;33988;47.992;8.820;2023-04-15T14:03:45;18.20;36.00
48043;DHT22;33988;47.992;8.820;2023-04-15T14:06:12;18.30;36.10
48043;DHT22;33988;47.992;8.820;2023-04-15T14:08:41;18.30;36.00
48043;DHT22;33988;47.992;8.820;2023-04-15T14:11:09;18.40;36.00
48043;DHT22;33988;47.992;8.820;2023-04-15T14:13:38;18.40;36.00
48043;DHT22;33988;47.992;8.820;2023-04-15T14:16:05;18.40;35.90
48043;DHT22;33988;47.992;8.820;2023-04-15T14:18:35;18.40;35.80
48043;DHT22;33988;47.992;8.820;2023-04-15T14:21:05;18.40;35.80
48043;DHT22;33988;47.992;8.820;2023-04-15T14:23:34;18.40;35.80
48043;DHT22;33988;47.992;8.820;2023-04-15T14:26:01;18.20;36.00
48043;DHT22;33988;47.992;8.820;2023-04-15T14:28:28;18.40;36.00
48043;DHT22;33988;47.992;8.820;2023-04-15T14:30:57;18.50;35.90
48043;DHT22;33988;47.992;8.820;2023-04-15T14:33:24;18.40;36.00
48043;DHT22;33988;47.992;8.820;2023-04-15T14:35:54;18.40;36.10
48043;DHT22;33988;47.992;8.820;2023-04-15T14:38:21;18.50;36.10
48043;DHT22;33988;47.992;8.820;2023-04-15T14:40:51;18.50;35.90
48043;DHT22;33988;47.992;8.820;2023-04-15T14:43:17;18.50;35.90
48043;DHT22;33988;47.992;8.820;2023-04-15T14:45:47;18.50;35.70
48043;DHT22;33988;47.992;8.820;2023-04-15T14:48:14;18.50;35.60
48043;DHT22;33988;47.992;8.820;2023-04-15T14:50:44;18.50;35.50
48043;DHT22;33988;47.992;8.820;2023-04-15T14:53:15;18.50;35.30
48043;DHT22;33988;47.992;8.820;2023-04-15T14:55:42;18.50;35.40
48043;DHT22;33988;47.992;8.820;2023-04-15T14:58:10;18.50;35.10
48043;DHT22;33988;47.992;8.820;2023-04-15T15:00:43;18.60;35.10
48043;DHT22;33988;47.992;8.820;2023-04-15T15:03:11;18.60;35.10
48043;DHT22;33988;47.992;8.820;2023-04-15T15:05:43;18.60;35.10
48043;DHT22;33988;47.992;8.820;2023-04-15T15:08:16;18.60;35.00
48043;DHT22;33988;47.992;8.820;2023-04-15T15:10:43;18.60;35.10
48043;DHT22;33988;47.992;8.820;2023-04-15T15:13:15;18.60;35.10
48043;DHT22;33988;47.992;8.820;2023-04-15T15:15:42;18.30;35.30
48043;DHT22;33988;47.992;8.820;2023-04-15T15:18:09;18.50;35.50
48043;DHT22;33988;47.992;8.820;2023-04-15T15:20:37;18.50;35.60
48043;DHT22;33988;47.992;8.820;2023-04-15T15:23:04;18.50;35.70
48043;DHT22;33988;47.992;8.820;2023-04-15T15:25:31;18.50;35.80
48043;DHT22;33988;47.992;8.820;2023-04-15T15:28:02;18.60;36.00
48043;DHT22;33988;47.992;8.820;2023-04-15T15:30:32;18.60;36.10
48043;DHT22;33988;47.992;8.820;2023-04-15T15:33:01;18.50;36.20
48043;DHT22;33988;47.992;8.820;2023-04-15T15:35:28;18.60;36.30
48043;DHT22;33988;47.992;8.820;2023-04-15T15:37:58;18.60;36.20
48043;DHT22;33988;47.992;8.820;2023-04-15T15:40:29;18.50;36.00
48043;DHT22;33988;47.992;8.820;2023-04-15T15:42:56;18.50;35.80
48043;DHT22;33988;47.992;8.820;2023-04-15T15:45:23;18.50;35.50
48043;DHT22;33988;47.992;8.820;2023-04-15T15:47:52;18.50;35.30
48043;DHT22;33988;47.992;8.820;2023-04-15T15:50:19;18.50;35.20
48043;DHT22;33988;47.992;8.820;2023-04-15T15:52:51;18.40;35.10
48043;DHT22;33988;47.992;8.820;2023-04-15T15:55:18;18.40;35.00
48043;DHT22;33988;47.992;8.820;2023-04-15T15:57:45;18.10;35.20
48043;DHT22;33988;47.992;8.820;2023-04-15T16:00:12;18.30;35.20
48043;DHT22;33988;47.992;8.820;2023-04-15T16:02:41;18.30;35.20